Time;durP1;ratioP1;P1;durP2;ratioP2;P2;SDS_P1;SDS_P2;PMS_P1;PMS_P2;Temp;Humidity;BMP_temperature;BMP_pressure;BME280_temperature;BME280_humidity;BME280_pressure;Samples;Min_cycle;Max_cycle;Signal;HPM_P1;HPM_P2
2023/04/26 00:00:49;;;;;;;7.80;2.40;;;;;;;5.71;80.60;100026.56;217878;1288;139269;-86
2023/04/26 00:05:49;;;;;;;9.40;3.10;;;;;;;5.62;80.77;100019.23;218393;1289;138879;-85
2023/04/26 00:10:49;;;;;;;7.10;2.40;;;;;;;5.53;80.88;100019.71;217811;1288;139110;-85
2023/04/26 00:15:50;;;;;;;10.30;2.30;;;;;;;5.44;81.32;100025.58;218359;1288;140107;-85
2023/04/26 00:20:50;;;;;;;10.90;2.20;;;;;;;5.36;81.83;100027.02;217820;1289;138522;-85
2023/04/26 00:25:51;;;;;;;8.70;2.10;;;;;;;5.30;82.23;100029.89;218385;1288;138392;-88
2023/04/26 00:30:51;;;;;;;18.10;3.30;;;;;;;5.21;82.39;100028.50;217831;1289;138415;-84
2023/04/26 00:35:52;;;;;;;8.70;2.40;;;;;;;5.13;82.62;100030.42;218385;1289;139934;-85
2023/04/26 00:40:52;;;;;;;7.50;2.30;;;;;;;5.05;82.91;100033.55;217843;1288;139263;-86
2023/04/26 00:45:52;;;;;;;14.70;2.70;;;;;;;4.98;83.04;100035.60;218299;1291;138545;-86
2023/04/26 00:50:53;;;;;;;11.80;2.90;;;;;;;4.91;83.35;100037.76;217947;1288;139041;-85
2023/04/26 00:55:54;;;;;;;8.50;2.80;;;;;;;4.84;83.62;100040.67;218506;1293;96179;-85
2023/04/26 01:00:54;;;;;;;12.10;3.00;;;;;;;4.76;83.61;100044.29;217872;1289;139569;-86
2023/04/26 01:05:55;;;;;;;10.50;2.00;;;;;;;4.69;83.60;100046.49;218238;1289;139187;-86
2023/04/26 01:10:56;;;;;;;13.00;3.60;;;;;;;4.63;83.97;100051.70;217692;1289;141592;-86
2023/04/26 01:15:57;;;;;;;4.30;1.80;;;;;;;4.55;83.83;100048.04;218372;1289;138895;-85
2023/04/26 01:20:58;;;;;;;7.80;1.80;;;;;;;4.51;83.74;100053.13;217783;1289;138776;-85
2023/04/26 01:25:58;;;;;;;10.60;2.10;;;;;;;4.45;83.88;100048.34;218470;1289;96787;-84
2023/04/26 01:30:59;;;;;;;8.80;2.00;;;;;;;4.39;84.16;100048.58;217842;1289;138708;-85
2023/04/26 01:35:59;;;;;;;8.00;2.00;;;;;;;4.34;83.93;100048.04;218347;1289;139207;-85
2023/04/26 01:41:00;;;;;;;8.40;1.70;;;;;;;4.29;84.27;100048.11;217846;1289;140139;-85
2023/04/26 01:46:00;;;;;;;10.60;2.00;;;;;;;4.24;84.38;100045.58;218388;1289;138674;-87
2023/04/26 01:51:01;;;;;;;7.70;2.10;;;;;;;4.18;84.62;100052.91;217791;1290;139685;-86
2023/04/26 01:56:02;;;;;;;9.90;2.00;;;;;;;4.14;84.98;100058.64;218487;1289;96012;-86
2023/04/26 02:01:07;;;;;;;8.00;2.70;;;;;;;4.10;85.02;100059.67;217845;1289;139611;-86
2023/04/26 02:06:08;;;;;;;6.70;2.20;;;;;;;4.01;84.80;100063.53;218186;1288;138532;-86
2023/04/26 02:11:10;;;;;;;6.40;1.80;;;;;;;3.94;85.52;100062.76;217820;1288;139716;-88
2023/04/26 02:16:11;;;;;;;7.90;1.70;;;;;;;3.87;85.57;100063.70;218356;1288;140838;-86
2023/04/26 02:21:11;;;;;;;5.30;1.90;;;;;;;3.80;85.46;100065.74;217831;1289;139344;-86
2023/04/26 02:26:13;;;;;;;7.90;2.00;;;;;;;3.74;85.96;100062.60;218458;1288;96073;-84
2023/04/26 02:31:13;;;;;;;7.70;1.80;;;;;;;3.68;85.78;100062.61;217625;1289;138246;-86
2023/04/26 02:36:14;;;;;;;7.50;1.60;;;;;;;3.63;85.79;100064.71;218358;1288;139317;-86
2023/04/26 02:41:14;;;;;;;8.70;2.40;;;;;;;3.59;86.23;100062.77;217703;1288;138633;-85
2023/04/26 02:46:14;;;;;;;8.20;1.80;;;;;;;3.53;86.30;100065.08;218386;1289;138654;-87
2023/04/26 02:51:15;;;;;;;4.60;1.80;;;;;;;3.48;86.56;100064.69;217850;1290;138573;-86
2023/04/26 02:56:16;;;;;;;10.00;2.00;;;;;;;3.42;86.92;100066.91;218495;1288;96003;-86
2023/04/26 03:01:17;;;;;;;13.60;3.40;;;;;;;3.37;87.20;100071.77;217838;1288;138451;-86
2023/04/26 03:06:18;;;;;;;8.50;2.30;;;;;;;3.30;87.45;100071.24;218347;1289;138506;-87
2023/04/26 03:11:18;;;;;;;6.60;2.20;;;;;;;3.25;87.77;100071.13;217681;1291;138542;-88
2023/04/26 03:16:22;;;;;;;8.00;1.80;;;;;;;3.22;87.79;100075.98;218356;1289;139476;-85
2023/04/26 03:21:22;;;;;;;5.50;1.50;;;;;;;3.17;88.04;100080.95;217818;1288;138955;-86
2023/04/26 03:26:22;;;;;;;8.00;1.80;;;;;;;3.11;88.36;100083.16;218464;1288;96112;-86
2023/04/26 03:31:23;;;;;;;6.60;1.90;;;;;;;3.07;88.56;100088.50;217775;1288;138616;-86
2023/04/26 03:36:23;;;;;;;9.00;1.80;;;;;;;3.03;88.78;100091.94;218381;1291;139719;-86
2023/04/26 03:41:24;;;;;;;11.30;1.80;;;;;;;2.98;89.28;100094.27;217782;1291;138958;-87
2023/04/26 03:46:24;;;;;;;8.40;1.80;;;;;;;2.92;89.57;100094.35;218373;1289;138920;-86
2023/04/26 03:51:26;;;;;;;10.50;2.60;;;;;;;2.89;90.03;100096.73;217824;1288;138996;-86
2023/04/26 03:56:26;;;;;;;8.90;2.00;;;;;;;2.87;90.11;100094.56;218368;1289;95847;-87
2023/04/26 04:01:27;;;;;;;11.60;2.50;;;;;;;2.82;90.60;100095.02;217855;1288;141766;-87
2023/04/26 04:06:27;;;;;;;7.70;2.10;;;;;;;2.80;90.60;100097.11;218292;1290;139908;-87
2023/04/26 04:11:28;;;;;;;8.80;2.00;;;;;;;2.79;90.92;100111.73;217849;1289;140029;-85
2023/04/26 04:16:28;;;;;;;7.90;2.20;;;;;;;2.78;91.27;100114.74;218173;1288;242670;-85
2023/04/26 04:21:29;;;;;;;10.30;2.50;;;;;;;2.79;91.75;100117.93;217814;1288;138656;-86
2023/04/26 04:26:29;;;;;;;13.00;3.50;;;;;;;2.79;91.74;100116.55;218431;1289;96432;-86
2023/04/26 04:31:30;;;;;;;11.00;3.30;;;;;;;2.82;92.08;100122.64;217825;1288;138769;-85
2023/04/26 04:36:31;;;;;;;17.60;4.20;;;;;;;2.84;92.62;100127.92;218025;1288;139293;-84
2023/04/26 04:41:31;;;;;;;9.90;3.00;;;;;;;2.88;92.35;100130.48;217613;1289;142304;-85
2023/04/26 04:46:32;;;;;;;13.40;2.50;;;;;;;2.94;92.82;100131.01;218296;1289;139035;-87
2023/04/26 04:51:32;;;;;;;11.10;2.50;;;;;;;3.02;92.77;100134.70;217853;1288;139673;-86
2023/04/26 04:56:33;;;;;;;7.70;1.80;;;;;;;3.08;92.59;100136.64;218515;1288;96637;-87
2023/04/26 05:01:35;;;;;;;11.10;2.50;;;;;;;3.15;92.88;100143.27;217851;1288;138233;-89
2023/04/26 05:06:35;;;;;;;8.80;1.80;;;;;;;3.23;92.98;100150.17;218353;1288;140054;-86
2023/04/26 05:11:36;;;;;;;9.00;2.30;;;;;;;3.33;92.87;100156.80;217712;1288;139134;-87
2023/04/26 05:16:37;;;;;;;11.90;2.40;;;;;;;3.43;93.47;100154.67;218437;1288;138659;-87
2023/04/26 05:21:37;;;;;;;11.90;2.50;;;;;;;3.53;93.27;100160.68;217849;1288;140438;-87
2023/04/26 05:26:38;;;;;;;14.60;2.50;;;;;;;3.64;93.22;100164.66;218440;1289;96931;-87
2023/04/26 05:31:38;;;;;;;15.10;2.40;;;;;;;3.83;93.59;100172.05;217810;1289;139399;-84
2023/04/26 05:36:39;;;;;;;12.30;2.90;;;;;;;4.10;92.76;100175.91;218388;1288;139490;-84
2023/04/26 05:41:39;;;;;;;11.30;2.30;;;;;;;4.44;92.96;100179.27;217840;1288;139165;-84
2023/04/26 05:46:40;;;;;;;10.40;2.00;;;;;;;4.86;92.10;100175.80;218192;1291;138882;-83
2023/04/26 05:51:40;;;;;;;11.30;2.40;;;;;;;5.33;91.44;100181.92;217791;1288;139669;-84
2023/04/26 05:56:41;;;;;;;7.80;2.00;;;;;;;5.84;90.40;100183.08;218478;1288;95994;-83
2023/04/26 06:01:41;;;;;;;12.40;2.60;;;;;;;6.32;89.20;100183.36;217757;1288;139125;-84
2023/04/26 06:06:42;;;;;;;8.20;2.00;;;;;;;6.71;87.35;100183.48;218240;1292;138671;-84
2023/04/26 06:11:42;;;;;;;11.00;2.00;;;;;;;6.95;85.96;100182.70;217691;1289;139603;-85
2023/04/26 06:16:42;;;;;;;10.20;2.00;;;;;;;7.09;84.16;100182.52;218178;1290;138871;-84
2023/04/26 06:21:43;;;;;;;15.20;2.40;;;;;;;7.14;83.14;100179.42;217536;1289;138844;-85
2023/04/26 06:26:43;;;;;;;11.20;2.20;;;;;;;7.13;81.63;100179.94;218359;1291;96555;-84
2023/04/26 06:31:44;;;;;;;10.50;2.30;;;;;;;7.16;82.42;100181.66;217476;1289;139249;-85
2023/04/26 06:36:45;;;;;;;11.00;1.90;;;;;;;7.31;82.44;100190.48;218091;1290;139942;-84
2023/04/26 06:41:45;;;;;;;14.50;2.90;;;;;;;7.41;81.50;100193.74;217644;1289;139164;-84
2023/04/26 06:46:46;;;;;;;10.40;2.00;;;;;;;7.46;81.18;100198.14;218201;1290;139489;-84
2023/04/26 06:51:46;;;;;;;7.60;1.50;;;;;;;7.55;80.61;100197.84;217671;1290;140270;-85
2023/04/26 06:56:46;;;;;;;13.90;1.80;;;;;;;7.63;80.65;100202.77;218310;1289;96107;-85
2023/04/26 07:01:47;;;;;;;9.70;2.20;;;;;;;7.78;80.40;100202.67;217689;1289;139217;-87
2023/04/26 07:06:49;;;;;;;19.10;2.40;;;;;;;7.93;79.38;100202.32;218206;1289;138331;-87
2023/04/26 07:11:49;;;;;;;9.00;2.40;;;;;;;8.06;78.82;100207.64;217597;1288;140649;-87
2023/04/26 07:16:50;;;;;;;12.00;2.00;;;;;;;8.16;77.19;100210.55;218293;1288;138717;-85
2023/04/26 07:21:50;;;;;;;9.40;2.10;;;;;;;8.21;76.91;100211.67;217758;1288;139296;-87
2023/04/26 07:26:51;;;;;;;11.00;1.90;;;;;;;8.34;76.37;100215.35;218430;1290;106979;-85
2023/04/26 07:31:51;;;;;;;7.10;2.10;;;;;;;8.42;76.46;100218.39;217857;1288;138533;-85
2023/04/26 07:36:52;;;;;;;8.50;2.50;;;;;;;8.62;75.04;100220.05;218307;1288;138539;-84
2023/04/26 07:41:52;;;;;;;7.70;2.40;;;;;;;8.69;74.76;100221.87;217863;1288;139187;-83
2023/04/26 07:46:52;;;;;;;9.00;2.10;;;;;;;8.90;74.59;100225.94;218354;1288;138545;-87
2023/04/26 07:51:55;;;;;;;8.30;3.00;;;;;;;8.98;73.55;100230.69;217860;1288;138872;-86
2023/04/26 07:56:55;;;;;;;9.20;2.00;;;;;;;9.08;73.42;100233.27;218268;1288;138656;-84
2023/04/26 08:01:56;;;;;;;9.20;2.50;;;;;;;9.20;72.60;100234.05;217730;1288;139784;-87
2023/04/26 08:06:56;;;;;;;9.30;2.10;;;;;;;9.32;72.42;100239.55;218260;1290;138384;-86
2023/04/26 08:11:57;;;;;;;9.30;1.90;;;;;;;9.50;70.76;100244.00;217790;1289;139450;-85
2023/04/26 08:16:57;;;;;;;9.30;1.80;;;;;;;9.56;70.26;100253.49;218370;1288;139077;-88
2023/04/26 08:21:58;;;;;;;7.40;2.00;;;;;;;9.56;70.24;100253.52;217771;1288;138713;-86
2023/04/26 08:26:58;;;;;;;10.40;2.40;;;;;;;9.74;70.37;100248.15;218257;1289;138479;-85
2023/04/26 08:31:59;;;;;;;6.70;1.70;;;;;;;10.00;69.07;100245.63;217939;1288;139570;-86
2023/04/26 08:37:00;;;;;;;7.20;1.70;;;;;;;10.34;68.34;100249.35;218347;1288;138661;-85
2023/04/26 08:42:13;;;;;;;10.80;1.90;;;;;;;10.89;68.92;100250.48;217813;1288;139825;-85
2023/04/26 08:47:38;;;;;;;6.50;1.80;;;;;;;11.45;66.90;100249.64;218192;1288;139007;-85
2023/04/26 08:52:39;;;;;;;6.30;1.60;;;;;;;11.75;66.06;100251.20;217749;1288;140168;-86
2023/04/26 08:57:42;;;;;;;7.60;2.00;;;;;;;11.98;64.72;100251.04;218341;1288;138139;-86
2023/04/26 09:02:50;;;;;;;13.20;2.60;;;;;;;11.96;61.96;100254.66;217957;1288;138907;-84
2023/04/26 09:07:55;;;;;;;7.30;1.40;;;;;;;12.08;62.30;100251.85;218360;1290;138442;-85
2023/04/26 09:12:55;;;;;;;5.40;1.30;;;;;;;12.54;62.72;100252.14;217824;1289;138847;-87
2023/04/26 09:18:15;;;;;;;7.80;1.80;;;;;;;13.07;60.08;100254.50;218384;1288;138487;-86
2023/04/26 09:23:16;;;;;;;6.00;1.70;;;;;;;13.13;58.50;100258.61;217817;1289;138265;-86
2023/04/26 09:28:21;;;;;;;6.20;1.50;;;;;;;13.07;57.33;100265.87;218368;1289;138367;-87
2023/04/26 09:33:21;;;;;;;7.40;1.70;;;;;;;12.96;57.53;100262.73;217865;1288;138448;-85
2023/04/26 09:38:22;;;;;;;8.80;1.90;;;;;;;12.82;56.95;100266.58;218509;1291;96318;-86
2023/04/26 09:43:22;;;;;;;12.20;2.60;;;;;;;12.64;56.10;100270.67;217865;1291;137956;-86
2023/04/26 09:48:33;;;;;;;8.30;1.60;;;;;;;12.58;57.93;100276.05;218429;1288;138167;-88
2023/04/26 09:53:36;;;;;;;7.20;2.00;;;;;;;12.53;56.68;100281.02;217786;1291;139177;-86
2023/04/26 09:58:56;;;;;;;9.70;1.70;;;;;;;12.27;56.63;100285.95;218280;1288;138109;-86
2023/04/26 10:04:00;;;;;;;6.70;1.30;;;;;;;11.94;57.94;100290.51;217761;1291;138725;-86
2023/04/26 10:09:03;;;;;;;7.70;1.80;;;;;;;11.85;60.30;100291.58;217872;1288;141216;-87
2023/04/26 10:14:03;;;;;;;7.80;1.60;;;;;;;11.86;60.61;100293.16;218410;1289;95915;-86
2023/04/26 10:19:04;;;;;;;5.10;1.90;;;;;;;11.64;60.48;100300.78;217906;1289;138765;-85
2023/04/26 10:24:05;;;;;;;12.40;2.20;;;;;;;11.45;60.56;100304.67;218469;1289;138953;-87
2023/04/26 10:29:05;;;;;;;11.70;2.60;;;;;;;11.45;60.42;100303.10;217880;1288;139042;-86
2023/04/26 10:34:19;;;;;;;6.30;2.00;;;;;;;11.31;59.74;100302.31;218279;1289;138393;-86
2023/04/26 10:39:24;;;;;;;5.50;1.50;;;;;;;11.63;60.85;100297.62;217797;1288;138588;-85
2023/04/26 10:44:41;;;;;;;8.40;1.90;;;;;;;12.07;60.05;100293.94;218409;1288;96924;-85
2023/04/26 10:49:48;;;;;;;9.20;2.20;;;;;;;12.67;57.78;100287.08;217861;1288;138409;-86
2023/04/26 10:54:56;;;;;;;5.60;2.00;;;;;;;13.13;55.83;100280.54;218257;1288;138007;-86
2023/04/26 11:00:09;;;;;;;6.10;1.60;;;;;;;13.34;56.40;100285.64;217766;1288;139539;-87
2023/04/26 11:05:09;;;;;;;8.60;1.90;;;;;;;13.58;56.62;100295.04;218360;1288;138315;-87
2023/04/26 11:10:21;;;;;;;7.60;2.40;;;;;;;13.91;56.04;100296.25;217909;1288;138700;-88
2023/04/26 11:15:23;;;;;;;7.70;2.00;;;;;;;14.08;53.96;100300.21;218343;1289;138621;-86
2023/04/26 11:20:31;;;;;;;6.60;1.70;;;;;;;14.01;52.70;100306.95;217996;1288;140177;-85
2023/04/26 11:25:31;;;;;;;6.00;1.50;;;;;;;13.85;53.03;100313.59;218330;1289;137937;-85
2023/04/26 11:30:33;;;;;;;7.40;1.90;;;;;;;13.55;53.11;100312.91;217858;1289;138431;-86
2023/04/26 11:35:34;;;;;;;5.50;1.70;;;;;;;13.42;53.46;100307.48;218399;1290;138465;-84
2023/04/26 11:40:37;;;;;;;6.00;1.60;;;;;;;13.48;52.99;100311.58;217759;1291;138661;-88
2023/04/26 11:45:38;;;;;;;7.20;2.10;;;;;;;13.65;52.84;100310.04;218342;1288;139478;-87
2023/04/26 11:50:39;;;;;;;7.40;1.50;;;;;;;13.78;52.16;100311.41;217900;1289;139271;-85
2023/04/26 11:55:39;;;;;;;6.40;1.70;;;;;;;14.04;51.41;100313.18;218233;1288;138180;-86
2023/04/26 12:00:56;;;;;;;5.50;1.30;;;;;;;14.09;49.55;100312.30;217827;1288;138618;-86
2023/04/26 12:05:57;;;;;;;5.80;1.60;;;;;;;13.99;49.63;100307.06;218312;1291;138371;-86
2023/04/26 12:11:01;;;;;;;5.60;1.90;;;;;;;14.33;50.93;100305.63;217819;1288;138841;-86
2023/04/26 12:16:07;;;;;;;7.00;1.80;;;;;;;14.53;49.37;100310.00;218208;1288;138180;-86
2023/04/26 12:21:08;;;;;;;7.50;1.80;;;;;;;14.58;48.63;100308.00;217610;1288;139088;-86
2023/04/26 12:26:11;;;;;;;8.20;2.40;;;;;;;14.68;48.81;100314.27;218412;1288;97199;-86
2023/04/26 12:31:12;;;;;;;5.90;1.70;;;;;;;14.54;46.16;100318.94;217709;1290;138760;-87
2023/04/26 12:36:12;;;;;;;6.10;2.10;;;;;;;14.53;47.00;100318.23;218381;1288;138284;-83
2023/04/26 12:41:13;;;;;;;4.70;1.30;;;;;;;14.56;46.83;100318.45;217681;1289;139051;-87
2023/04/26 12:46:13;;;;;;;5.10;1.80;;;;;;;14.42;46.88;100322.66;218428;1288;138813;-83
2023/04/26 12:51:14;;;;;;;5.20;1.90;;;;;;;14.50;46.71;100321.18;217640;1289;139188;-84
2023/04/26 12:56:15;;;;;;;4.80;1.40;;;;;;;14.40;45.53;100322.91;218528;1288;96341;-87
2023/04/26 13:01:15;;;;;;;7.20;1.60;;;;;;;14.51;44.71;100321.27;217889;1289;138369;-88
2023/04/26 13:06:16;;;;;;;7.70;1.60;;;;;;;14.64;45.98;100318.64;218380;1290;136823;-85
2023/04/26 13:11:17;;;;;;;6.60;1.40;;;;;;;14.75;44.26;100324.96;217814;1288;138469;-87
2023/04/26 13:16:17;;;;;;;6.30;1.90;;;;;;;14.60;45.61;100323.27;218123;1291;138617;-86
2023/04/26 13:21:18;;;;;;;18.40;2.70;;;;;;;14.75;46.04;100321.86;217813;1289;139461;-86
2023/04/26 13:26:18;;;;;;;5.20;1.30;;;;;;;14.82;44.42;100323.96;218518;1289;96183;-86
2023/04/26 13:31:19;;;;;;;6.30;1.50;;;;;;;14.75;45.62;100336.36;217764;1291;138784;-86
2023/04/26 13:36:19;;;;;;;9.40;1.40;;;;;;;14.61;43.26;100345.40;218347;1288;138032;-84
2023/04/26 13:41:21;;;;;;;7.80;2.00;;;;;;;14.17;44.41;100342.55;217805;1288;139094;-86
2023/04/26 13:46:21;;;;;;;7.70;1.30;;;;;;;14.20;46.39;100341.77;218376;1288;138681;-83
2023/04/26 13:51:23;;;;;;;6.70;1.90;;;;;;;14.29;44.53;100344.65;217869;1288;138864;-86
2023/04/26 13:56:24;;;;;;;5.10;1.60;;;;;;;14.24;44.94;100345.48;218379;1288;111704;-84
2023/04/26 14:01:25;;;;;;;4.70;1.40;;;;;;;14.29;45.11;100346.30;217896;1288;139508;-83
2023/04/26 14:06:25;;;;;;;6.90;1.60;;;;;;;14.19;44.31;100350.94;218315;1288;138212;-84
2023/04/26 14:11:27;;;;;;;5.70;1.50;;;;;;;13.91;44.69;100359.49;217739;1288;139240;-85
2023/04/26 14:16:28;;;;;;;6.40;1.80;;;;;;;13.67;44.99;100360.20;218351;1288;138899;-84
2023/04/26 14:21:28;;;;;;;5.70;1.40;;;;;;;13.48;45.12;100357.47;217843;1288;138386;-84
2023/04/26 14:26:29;;;;;;;5.60;2.10;;;;;;;13.14;44.27;100361.23;218387;1291;110326;-85
2023/04/26 14:31:30;;;;;;;5.20;1.30;;;;;;;12.80;44.32;100363.09;217871;1288;139718;-82
2023/04/26 14:36:32;;;;;;;5.00;1.30;;;;;;;12.57;44.99;100361.95;218409;1289;137983;-86
2023/04/26 14:41:32;;;;;;;3.80;1.40;;;;;;;12.42;46.30;100367.04;217839;1289;138843;-84
2023/04/26 14:46:32;;;;;;;5.90;1.80;;;;;;;12.34;46.19;100363.31;218393;1288;138170;-85
2023/04/26 14:51:33;;;;;;;8.50;1.50;;;;;;;12.31;45.48;100366.70;217875;1289;138695;-84
2023/04/26 14:56:35;;;;;;;6.70;1.70;;;;;;;12.26;45.75;100365.81;218431;1290;112257;-83
2023/04/26 15:01:36;;;;;;;6.00;1.90;;;;;;;12.19;45.74;100370.27;217606;1289;138509;-85
2023/04/26 15:06:37;;;;;;;6.50;1.80;;;;;;;12.15;46.56;100373.58;218358;1291;138130;-83
2023/04/26 15:11:37;;;;;;;6.80;1.50;;;;;;;12.07;45.74;100375.20;217434;1291;139224;-84
2023/04/26 15:16:38;;;;;;;7.70;2.00;;;;;;;11.99;46.78;100383.35;218048;1290;139263;-87
2023/04/26 15:21:38;;;;;;;7.30;1.90;;;;;;;11.91;47.36;100384.80;217522;1291;138522;-85
2023/04/26 15:26:38;;;;;;;5.60;1.80;;;;;;;11.86;47.83;100383.70;218172;1291;97030;-85
2023/04/26 15:31:39;;;;;;;6.90;1.70;;;;;;;11.74;47.24;100388.35;217614;1289;138755;-85
2023/04/26 15:36:40;;;;;;;6.00;2.20;;;;;;;11.50;48.02;100389.59;218145;1289;138562;-85
2023/04/26 15:41:40;;;;;;;7.20;2.40;;;;;;;11.39;49.14;100398.96;217573;1289;138929;-83
2023/04/26 15:46:41;;;;;;;9.80;2.30;;;;;;;11.35;49.93;100395.16;218129;1289;138194;-83
2023/04/26 15:51:41;;;;;;;5.70;1.90;;;;;;;11.30;50.13;100396.61;217690;1289;138352;-82
2023/04/26 15:56:43;;;;;;;4.10;1.90;;;;;;;11.21;49.18;100399.69;218198;1290;96012;-81
2023/04/26 16:01:43;;;;;;;5.60;2.10;;;;;;;11.16;49.62;100400.20;217536;1292;138919;-80
2023/04/26 16:06:44;;;;;;;15.40;3.30;;;;;;;11.01;49.19;100402.51;218184;1289;138724;-83
2023/04/26 16:11:45;;;;;;;9.70;2.30;;;;;;;10.89;50.39;100406.48;217693;1289;138577;-81
2023/04/26 16:16:46;;;;;;;9.20;3.10;;;;;;;10.77;50.22;100411.09;218149;1289;280835;-83
2023/04/26 16:21:46;;;;;;;9.20;2.40;;;;;;;10.69;51.24;100417.23;217897;1289;138949;-84
2023/04/26 16:26:47;;;;;;;5.00;1.60;;;;;;;10.66;51.17;100424.04;218562;1290;96144;-82
2023/04/26 16:31:47;;;;;;;5.90;2.80;;;;;;;10.65;51.83;100430.23;217852;1294;138133;-82
2023/04/26 16:36:47;;;;;;;11.90;3.50;;;;;;;10.68;51.95;100434.27;218334;1288;138822;-84
2023/04/26 16:41:48;;;;;;;8.90;2.30;;;;;;;10.66;51.30;100435.74;217717;1289;139336;-84
2023/04/26 16:46:48;;;;;;;9.60;3.60;;;;;;;10.54;51.72;100432.79;218357;1292;138452;-85
2023/04/26 16:51:57;;;;;;;9.70;2.40;;;;;;;10.47;52.36;100433.02;217791;1288;138432;-85
2023/04/26 16:56:57;;;;;;;10.70;2.90;;;;;;;10.41;53.07;100436.48;218307;1288;138478;-83
2023/04/26 17:01:58;;;;;;;10.70;2.60;;;;;;;10.38;53.69;100440.38;217948;1289;138901;-84
2023/04/26 17:06:58;;;;;;;5.60;2.40;;;;;;;10.29;52.89;100445.08;218416;1291;138928;-84
2023/04/26 17:11:59;;;;;;;11.50;2.60;;;;;;;10.13;54.05;100446.28;217846;1289;139734;-84
2023/04/26 17:16:59;;;;;;;7.70;3.10;;;;;;;10.01;53.71;100451.84;218421;1289;138761;-83
2023/04/26 17:22:00;;;;;;;8.10;3.00;;;;;;;9.85;53.41;100453.55;217831;1289;138699;-85
2023/04/26 17:27:01;;;;;;;8.00;2.40;;;;;;;9.68;53.50;100455.20;218437;1290;137800;-83
2023/04/26 17:32:02;;;;;;;9.10;2.70;;;;;;;9.55;54.21;100456.17;217906;1291;138258;-82
2023/04/26 17:37:02;;;;;;;9.60;3.40;;;;;;;9.40;54.65;100464.10;218339;1288;138378;-85
2023/04/26 17:42:02;;;;;;;16.00;6.10;;;;;;;9.23;55.25;100470.95;217880;1289;139619;-85
2023/04/26 17:47:04;;;;;;;15.80;8.50;;;;;;;9.10;56.08;100472.85;218382;1292;138841;-83
2023/04/26 17:52:05;;;;;;;10.60;4.30;;;;;;;9.00;56.03;100476.65;217869;1289;139254;-83
2023/04/26 17:57:06;;;;;;;11.70;5.20;;;;;;;8.90;57.38;100479.53;218427;1289;138228;-85
2023/04/26 18:02:07;;;;;;;10.00;3.90;;;;;;;8.79;58.29;100479.40;217913;1290;138553;-84
2023/04/26 18:07:07;;;;;;;11.20;4.10;;;;;;;8.69;58.80;100489.94;218384;1288;138084;-84
2023/04/26 18:12:08;;;;;;;12.70;4.50;;;;;;;8.59;59.21;100494.14;217910;1290;138775;-83
2023/04/26 18:17:10;;;;;;;13.70;4.90;;;;;;;8.45;59.38;100492.83;218439;1289;138230;-83
2023/04/26 18:22:10;;;;;;;14.10;6.20;;;;;;;8.30;59.60;100497.88;217861;1288;139618;-83
2023/04/26 18:27:12;;;;;;;12.70;5.00;;;;;;;8.15;59.92;100494.91;218442;1288;139384;-84
2023/04/26 18:32:13;;;;;;;11.70;4.90;;;;;;;8.00;60.73;100501.85;217793;1289;140141;-84
2023/04/26 18:37:14;;;;;;;14.90;6.10;;;;;;;7.84;61.55;100505.17;218371;1289;139181;-83
2023/04/26 18:42:15;;;;;;;13.90;6.70;;;;;;;7.71;62.33;100512.79;217871;1289;138544;-82
2023/04/26 18:47:15;;;;;;;15.50;6.40;;;;;;;7.60;62.67;100516.33;218410;1289;138363;-83
2023/04/26 18:52:15;;;;;;;16.50;7.40;;;;;;;7.50;63.36;100522.37;217767;1288;139011;-83
2023/04/26 18:57:20;;;;;;;15.80;7.10;;;;;;;7.35;63.54;100527.55;218276;1289;139500;-83
2023/04/26 19:02:21;;;;;;;17.00;7.10;;;;;;;7.17;64.21;100535.51;217951;1289;137734;-82
2023/04/26 19:07:22;;;;;;;18.50;7.50;;;;;;;7.00;64.87;100537.17;218408;1289;137929;-83
2023/04/26 19:12:23;;;;;;;15.80;7.30;;;;;;;6.88;65.38;100542.87;217678;1289;138512;-83
2023/04/26 19:17:23;;;;;;;14.40;5.80;;;;;;;6.74;66.04;100542.07;218406;1288;138251;-83
2023/04/26 19:22:24;;;;;;;13.00;5.00;;;;;;;6.60;66.72;100545.36;217870;1289;138200;-82
2023/04/26 19:27:25;;;;;;;13.70;5.40;;;;;;;6.46;67.22;100549.85;218349;1291;138710;-82
2023/04/26 19:32:25;;;;;;;13.60;5.00;;;;;;;6.32;67.98;100549.66;217863;1288;138758;-82
2023/04/26 19:37:25;;;;;;;13.30;5.40;;;;;;;6.17;68.40;100552.11;218250;1291;137956;-83
2023/04/26 19:42:26;;;;;;;11.40;4.20;;;;;;;6.04;68.95;100550.38;217756;1289;138693;-83
2023/04/26 19:47:26;;;;;;;13.70;5.30;;;;;;;5.91;69.43;100556.55;218387;1289;138741;-83
2023/04/26 19:52:27;;;;;;;13.70;4.70;;;;;;;5.77;70.15;100549.73;217841;1288;139028;-84
2023/04/26 19:57:27;;;;;;;12.30;5.00;;;;;;;5.67;70.50;100553.91;218386;1288;138986;-83
2023/04/26 20:02:27;;;;;;;14.00;5.90;;;;;;;5.55;70.89;100556.95;217970;1288;138813;-82
2023/04/26 20:07:28;;;;;;;14.20;5.40;;;;;;;5.42;71.15;100556.31;218342;1289;139239;-83
2023/04/26 20:12:29;;;;;;;16.00;6.40;;;;;;;5.32;71.71;100552.05;217709;1288;138817;-83
2023/04/26 20:17:29;;;;;;;13.00;4.90;;;;;;;5.22;72.34;100555.52;217957;1289;139657;-83
2023/04/26 20:22:30;;;;;;;14.10;5.30;;;;;;;5.12;72.52;100556.02;217730;1288;138716;-84
2023/04/26 20:27:30;;;;;;;12.80;5.50;;;;;;;4.99;72.88;100559.41;218394;1289;138940;-83
2023/04/26 20:32:31;;;;;;;11.10;5.70;;;;;;;4.91;73.25;100562.53;217902;1289;139198;-84
2023/04/26 20:37:31;;;;;;;12.80;5.40;;;;;;;4.81;73.57;100560.09;218383;1288;139601;-83
2023/04/26 20:42:32;;;;;;;13.80;6.20;;;;;;;4.71;74.13;100562.12;217813;1288;139165;-82
2023/04/26 20:47:32;;;;;;;15.10;6.60;;;;;;;4.60;74.67;100561.66;218404;1288;139174;-83
2023/04/26 20:52:32;;;;;;;13.30;6.40;;;;;;;4.50;74.97;100563.46;217704;1288;138868;-83
2023/04/26 20:57:33;;;;;;;12.10;5.60;;;;;;;4.42;75.56;100563.29;218370;1288;138686;-84
2023/04/26 21:02:33;;;;;;;16.00;6.10;;;;;;;4.31;75.95;100566.70;217789;1288;138861;-84
2023/04/26 21:07:34;;;;;;;12.90;5.30;;;;;;;4.22;76.40;100566.45;218417;1288;138615;-84
2023/04/26 21:12:35;;;;;;;16.70;6.10;;;;;;;4.15;76.51;100567.81;217738;1289;139031;-88
2023/04/26 21:17:35;;;;;;;14.60;6.00;;;;;;;4.07;76.91;100567.93;218319;1288;138679;-87
2023/04/26 21:22:35;;;;;;;12.50;5.70;;;;;;;4.01;77.17;100571.74;217760;1288;139086;-87
2023/04/26 21:27:36;;;;;;;18.20;6.10;;;;;;;3.96;77.19;100577.99;218290;1288;138594;-86
2023/04/26 21:32:39;;;;;;;17.30;6.70;;;;;;;3.89;77.58;100580.40;217924;1289;138964;-86
2023/04/26 21:37:39;;;;;;;17.10;7.10;;;;;;;3.85;77.57;100590.89;218333;1289;138640;-85
2023/04/26 21:42:40;;;;;;;16.30;6.60;;;;;;;3.81;77.45;100589.31;217844;1288;139227;-85
2023/04/26 21:47:40;;;;;;;16.10;7.40;;;;;;;3.78;77.76;100593.08;218372;1289;139787;-85
2023/04/26 21:52:41;;;;;;;15.70;6.10;;;;;;;3.74;78.03;100597.03;217839;1288;141880;-86
2023/04/26 21:57:41;;;;;;;17.10;7.00;;;;;;;3.70;78.15;100598.11;218352;1288;139091;-86
2023/04/26 22:02:42;;;;;;;17.60;6.90;;;;;;;3.65;78.20;100605.85;217927;1288;139485;-86
2023/04/26 22:07:42;;;;;;;14.40;6.30;;;;;;;3.61;78.42;100613.69;218344;1289;138969;-86
2023/04/26 22:12:43;;;;;;;22.10;7.70;;;;;;;3.55;78.97;100617.48;217830;1288;139363;-86
2023/04/26 22:17:43;;;;;;;15.40;6.90;;;;;;;3.51;79.15;100622.45;218380;1289;138924;-86
2023/04/26 22:22:44;;;;;;;16.00;7.60;;;;;;;3.46;79.40;100625.50;217759;1288;139383;-85
2023/04/26 22:27:44;;;;;;;19.60;7.10;;;;;;;3.43;79.54;100628.69;218347;1289;139202;-85
2023/04/26 22:32:45;;;;;;;18.00;7.70;;;;;;;3.37;79.99;100624.64;217892;1290;138864;-85
2023/04/26 22:37:46;;;;;;;17.00;6.90;;;;;;;3.32;80.07;100624.55;218330;1288;139063;-85
2023/04/26 22:42:46;;;;;;;17.50;8.20;;;;;;;3.26;80.33;100622.52;217758;1289;138885;-85
2023/04/26 22:47:47;;;;;;;15.50;8.60;;;;;;;3.19;80.65;100631.57;218361;1288;139251;-86
2023/04/26 22:52:48;;;;;;;17.00;8.50;;;;;;;3.13;81.04;100637.16;217838;1288;139212;-85